createdAt,value
2024-04-18T00:04:30.498Z,12.76
2024-04-18T00:09:48.730Z,12.77
2024-04-18T00:15:08.092Z,12.76
2024-04-18T00:20:28.128Z,12.76
2024-04-18T00:25:47.116Z,12.76
2024-04-18T00:31:06.841Z,12.76
2024-04-18T00:36:26.195Z,12.76
2024-04-18T00:43:00.328Z,12.75
2024-04-18T00:47:15.014Z,12.74
2024-04-18T00:57:43.432Z,12.75
2024-04-18T01:03:01.503Z,12.74
2024-04-18T01:08:21.044Z,12.74
2024-04-18T01:13:40.169Z,12.74
2024-04-18T01:18:59.815Z,12.74
2024-04-18T01:24:18.741Z,12.74
2024-04-18T01:29:38.293Z,12.73
2024-04-18T01:34:56.924Z,12.73
2024-04-18T01:40:17.294Z,12.73
2024-04-18T01:45:35.435Z,12.72
2024-04-18T01:50:55.477Z,12.73
2024-04-18T01:56:13.588Z,12.72
2024-04-18T02:01:32.906Z,12.72
2024-04-18T02:06:53.400Z,12.72
2024-04-18T02:12:12.634Z,12.71
2024-04-18T02:17:31.908Z,12.71
2024-04-18T02:22:50.304Z,12.7
2024-04-18T02:28:09.687Z,12.7
2024-04-18T02:33:29.710Z,12.7
2024-04-18T02:38:49.598Z,12.69
2024-04-18T02:44:08.491Z,12.7
2024-04-18T02:49:27.279Z,12.68
2024-04-18T02:54:47.020Z,12.68
2024-04-18T03:00:05.210Z,12.68
2024-04-18T03:05:25.354Z,12.68
2024-04-18T03:10:43.522Z,12.68
2024-04-18T03:16:02.921Z,12.68
2024-04-18T03:21:22.059Z,12.67
2024-04-18T03:26:41.583Z,12.67
2024-04-18T03:32:01.395Z,12.66
2024-04-18T03:37:21.254Z,12.66
2024-04-18T03:42:39.820Z,12.65
2024-04-18T03:47:58.869Z,12.65
2024-04-18T03:53:17.759Z,12.64
2024-04-18T03:58:37.180Z,12.64
2024-04-18T04:03:56.788Z,12.64
2024-04-18T04:09:15.810Z,12.64
2024-04-18T04:14:35.559Z,12.63
2024-04-18T04:19:54.907Z,12.63
2024-04-18T04:25:13.590Z,12.62
2024-04-18T04:30:32.608Z,12.62
2024-04-18T04:35:51.574Z,12.62
2024-04-18T04:41:10.807Z,12.63
2024-04-18T04:46:30.725Z,12.63
2024-04-18T04:51:50.282Z,12.64
2024-04-18T04:57:09.099Z,12.64
2024-04-18T05:02:28.862Z,12.66
2024-04-18T05:09:27.423Z,12.66
2024-04-18T05:13:42.707Z,12.67
2024-04-18T05:18:26.286Z,12.67
2024-04-18T05:23:45.674Z,12.69
2024-04-18T05:29:04.986Z,12.71
2024-04-18T05:34:25.182Z,12.72
2024-04-18T05:39:43.284Z,12.74
2024-04-18T05:45:02.641Z,12.76
2024-04-18T05:50:21.806Z,12.76
2024-04-18T05:55:42.295Z,12.77
2024-04-18T06:01:00.278Z,12.8
2024-04-18T06:06:19.277Z,12.84
2024-04-18T06:11:38.757Z,12.9
2024-04-18T06:16:59.033Z,12.9
2024-04-18T06:22:17.385Z,12.9
2024-04-18T06:27:36.823Z,12.95
2024-04-18T06:32:56.289Z,12.97
2024-04-18T06:38:16.404Z,12.97
2024-04-18T06:43:34.666Z,12.98
2024-04-18T06:48:54.517Z,13
2024-04-18T06:54:13.216Z,13.12
2024-04-18T06:59:32.926Z,13.26
2024-04-18T07:04:52.062Z,13.32
2024-04-18T07:10:12.320Z,13.34
2024-04-18T07:15:30.731Z,13.28
2024-04-18T07:20:50.363Z,13.3
2024-04-18T07:26:09.351Z,13.35
2024-04-18T07:31:28.157Z,13.48
2024-04-18T07:36:56.658Z,13.73
2024-04-18T07:42:07.855Z,13.84
2024-04-18T07:47:26.930Z,13.83
2024-04-18T07:52:50.402Z,13.81
2024-04-18T07:58:07.797Z,13.7
2024-04-18T08:03:26.188Z,13.74
2024-04-18T08:08:45.820Z,13.83
2024-04-18T08:14:05.196Z,13.78
2024-04-18T08:19:23.355Z,13.78
2024-04-18T08:24:42.673Z,13.8
2024-04-18T08:30:01.847Z,13.87
2024-04-18T08:35:21.138Z,13.85
2024-04-18T08:40:40.342Z,13.9
2024-04-18T08:45:59.812Z,14.24
2024-04-18T08:51:19.376Z,14.28
2024-04-18T08:56:39.036Z,14.26
2024-04-18T09:01:58.541Z,14.26
2024-04-18T09:07:17.726Z,14.33
2024-04-18T09:12:37.020Z,14.25
2024-04-18T09:17:56.645Z,14.04
2024-04-18T09:23:16.304Z,13.9
2024-04-18T09:28:35.918Z,14.24
2024-04-18T09:33:55.758Z,14.09
2024-04-18T09:39:16.922Z,13.97
2024-04-18T09:44:33.340Z,13.95
2024-04-18T09:49:54.341Z,13.89
2024-04-18T09:55:12.200Z,13.86
2024-04-18T10:00:32.170Z,13.93
2024-04-18T10:05:50.646Z,14.18
2024-04-18T10:11:42.164Z,14.37
2024-04-18T10:17:01.843Z,14.37
2024-04-18T10:27:40.424Z,14.39
2024-04-18T10:33:00.898Z,14.4
2024-04-18T10:38:18.873Z,14.37
2024-04-18T10:43:38.210Z,14.07
2024-04-18T10:48:57.345Z,13.9
2024-04-18T10:54:17.341Z,13.94
2024-04-18T11:04:57.086Z,13.72
2024-04-18T11:10:16.584Z,13.62
2024-04-18T11:15:36.107Z,13.74
2024-04-18T11:20:53.919Z,14.37
2024-04-18T11:26:13.567Z,14.34
2024-04-18T11:36:52.814Z,14.4
2024-04-18T11:42:11.608Z,14.4
2024-04-18T11:47:30.768Z,14.4
2024-04-18T11:52:49.799Z,14.38
2024-04-18T11:58:08.857Z,14.36
2024-04-18T12:08:49.158Z,13.69
2024-04-18T12:14:06.758Z,14.37
2024-04-18T12:19:25.223Z,14.39
2024-04-18T12:24:44.451Z,14.4
2024-04-18T12:30:04.014Z,14.39
2024-04-18T12:35:23.447Z,14.38
2024-04-18T12:40:42.497Z,14.39
2024-04-18T12:46:06.463Z,14.4
2024-04-18T12:51:21.969Z,14.44
2024-04-18T12:56:41.010Z,14.39
2024-04-18T13:02:00.191Z,14.4
2024-04-18T13:07:20.208Z,14.44
2024-04-18T13:12:38.583Z,14.47
2024-04-18T13:17:57.773Z,14.44
2024-04-18T13:23:16.500Z,14.41
2024-04-18T13:28:36.409Z,14.4
2024-04-18T13:33:56.850Z,14.4
2024-04-18T13:39:13.839Z,14.4
2024-04-18T13:44:33.780Z,14.41
2024-04-18T13:49:52.626Z,14.4
2024-04-18T13:55:11.049Z,14.41
2024-04-18T14:00:31.086Z,14.4
2024-04-18T14:05:50.250Z,14.41
2024-04-18T14:11:09.627Z,14.39
2024-04-18T14:16:29.092Z,14.46
2024-04-18T14:21:48.574Z,14.45
2024-04-18T14:32:28.088Z,14.42
2024-04-18T14:43:05.006Z,14.39
2024-04-18T14:48:24.712Z,14.4
2024-04-18T14:53:43.443Z,14.38
2024-04-18T14:59:02.277Z,13.41
2024-04-18T15:04:21.745Z,13.36
2024-04-18T15:14:59.444Z,13.17
2024-04-18T15:20:18.766Z,13.21
2024-04-18T15:25:37.885Z,14.38
2024-04-18T15:30:57.569Z,14.39
2024-04-18T15:36:17.237Z,14.44
2024-04-18T15:41:36.482Z,14.4
2024-04-18T15:46:56.192Z,14.4
2024-04-18T15:52:15.655Z,14.4
2024-04-18T15:57:35.161Z,14.4
2024-04-18T16:02:55.496Z,14.39
2024-04-18T16:08:14.501Z,14.38
2024-04-18T16:13:32.371Z,14.38
2024-04-18T16:18:52.178Z,14.38
2024-04-18T16:24:11.570Z,13.96
2024-04-18T16:29:30.555Z,13.58
2024-04-18T16:34:49.556Z,13.27
2024-04-18T16:40:09.208Z,13.17
2024-04-18T16:45:28.867Z,13.17
2024-04-18T16:50:47.656Z,13.18
2024-04-18T16:56:07.287Z,13.24
2024-04-18T17:01:26.428Z,13.37
2024-04-18T17:06:48.029Z,14.38
2024-04-18T17:12:05.224Z,14.39
2024-04-18T17:17:24.727Z,14.38
2024-04-18T17:22:43.823Z,14.38
2024-04-18T17:28:02.574Z,14.22
2024-04-18T17:33:22.236Z,13.16
2024-04-18T17:38:41.768Z,13.09
2024-04-18T17:44:00.852Z,13.05
2024-04-18T17:49:19.774Z,13.03
2024-04-18T17:54:39.511Z,13
2024-04-18T17:59:58.267Z,12.98
2024-04-18T18:05:17.266Z,12.96
2024-04-18T18:10:36.193Z,12.94
2024-04-18T18:15:55.300Z,12.93
2024-04-18T18:21:15.173Z,12.92
2024-04-18T18:26:33.726Z,12.92
2024-04-18T18:31:53.381Z,12.91
2024-04-18T18:37:21.180Z,12.91
2024-04-18T18:42:31.155Z,12.9
2024-04-18T18:47:50.872Z,12.9
2024-04-18T18:53:10.054Z,12.89
2024-04-18T18:58:28.907Z,12.89
2024-04-18T19:03:48.095Z,12.89
2024-04-18T19:09:07.478Z,12.88
2024-04-18T19:14:26.504Z,12.88
2024-04-18T19:19:45.409Z,12.88
2024-04-18T19:25:04.492Z,12.88
2024-04-18T19:30:23.411Z,12.87
2024-04-18T19:35:42.406Z,12.87
2024-04-18T19:41:01.858Z,12.87
2024-04-18T19:46:20.904Z,12.86
2024-04-18T19:51:40.783Z,12.86
2024-04-18T19:56:59.355Z,12.86
2024-04-18T20:02:18.994Z,12.86
2024-04-18T20:07:38.443Z,12.86
2024-04-18T20:12:57.591Z,12.85
2024-04-18T20:18:17.399Z,12.85
2024-04-18T20:23:36.119Z,12.85
2024-04-18T20:28:55.302Z,12.85
2024-04-18T20:34:14.868Z,12.85
2024-04-18T20:39:33.990Z,12.84
2024-04-18T20:44:53.014Z,12.84
2024-04-18T20:50:12.520Z,12.84
2024-04-18T20:55:32.202Z,12.84
2024-04-18T21:00:50.922Z,12.84
2024-04-18T21:06:10.074Z,12.83
2024-04-18T21:11:29.327Z,12.83
2024-04-18T21:16:48.960Z,12.82
2024-04-18T21:22:07.592Z,12.83
2024-04-18T21:27:27.140Z,12.83
2024-04-18T21:32:46.488Z,12.82
2024-04-18T21:38:05.988Z,12.82
2024-04-18T21:43:25.352Z,12.83
2024-04-18T21:48:44.953Z,12.82
2024-04-18T21:54:04.250Z,12.82
2024-04-18T21:59:23.355Z,12.82
2024-04-18T22:04:42.020Z,12.82
2024-04-18T22:10:01.385Z,12.82
2024-04-18T22:15:21.205Z,12.82
2024-04-18T22:20:40.958Z,12.81
2024-04-18T22:26:00.107Z,12.82
2024-04-18T22:31:19.136Z,12.81
2024-04-18T22:36:39.156Z,12.81
2024-04-18T22:41:58.556Z,12.81
2024-04-18T22:47:17.828Z,12.81
2024-04-18T22:52:37.514Z,12.82
2024-04-18T22:57:57.569Z,12.82
2024-04-18T23:04:31.815Z,12.8
2024-04-18T23:08:34.938Z,12.81
2024-04-18T23:13:54.139Z,12.81
2024-04-18T23:19:13.487Z,12.81
2024-04-18T23:24:32.055Z,12.81
2024-04-18T23:29:52.011Z,12.8
2024-04-18T23:35:10.531Z,12.81
2024-04-18T23:40:30.293Z,12.8
2024-04-18T23:45:49.874Z,12.8
2024-04-18T23:51:09.265Z,12.8
2024-04-18T23:56:29.623Z,12.79
